createdAt,value
2023-04-20T00:02:23.058Z,12.32
2023-04-20T00:04:54.373Z,11.93
2023-04-20T00:07:24.885Z,11.97
2023-04-20T00:09:53.882Z,12.07
2023-04-20T00:12:22.781Z,11.89
2023-04-20T00:14:52.036Z,11.96
2023-04-20T00:17:22.208Z,11.96
2023-04-20T00:19:51.232Z,12.26
2023-04-20T00:22:21.630Z,12.05
2023-04-20T00:24:50.868Z,11.97
2023-04-20T00:27:21.010Z,12.19
2023-04-20T00:29:50.069Z,12.00
2023-04-20T00:32:19.370Z,12.15
2023-04-20T00:34:50.800Z,12.38
2023-04-20T00:37:21.170Z,12.25
2023-04-20T00:39:50.479Z,11.94
2023-04-20T00:42:19.825Z,12.17
2023-04-20T00:44:50.559Z,11.93
2023-04-20T00:47:19.758Z,12.22
2023-04-20T00:49:49.170Z,12.13
2023-04-20T00:52:18.260Z,12.10
2023-04-20T00:54:49.049Z,12.17
2023-04-20T00:57:24.265Z,12.23
2023-04-20T00:59:53.185Z,12.11
2023-04-20T01:02:24.653Z,12.10
2023-04-20T01:04:53.741Z,12.17
2023-04-20T01:07:23.901Z,12.24
2023-04-20T01:09:54.224Z,12.09
2023-04-20T01:12:23.415Z,12.22
2023-04-20T01:14:52.501Z,12.15
2023-04-20T01:17:22.349Z,12.20
2023-04-20T01:19:51.557Z,12.19
2023-04-20T01:22:22.415Z,12.12
2023-04-20T01:24:51.519Z,12.15
2023-04-20T01:27:22.102Z,12.21
2023-04-20T01:29:51.697Z,12.00
2023-04-20T01:32:20.852Z,12.08
2023-04-20T01:34:50.367Z,12.17
2023-04-20T01:37:23.992Z,12.43
2023-04-20T01:39:52.925Z,12.09
2023-04-20T01:42:29.465Z,12.33
2023-04-20T01:44:59.897Z,12.31
2023-04-20T01:47:29.832Z,12.20
2023-04-20T01:49:59.179Z,12.46
2023-04-20T01:52:29.775Z,12.57
2023-04-20T01:54:58.964Z,12.24
2023-04-20T01:57:28.152Z,12.36
2023-04-20T01:59:57.209Z,12.32
2023-04-20T02:02:26.567Z,12.21
2023-04-20T02:04:56.400Z,12.02
2023-04-20T02:07:25.862Z,11.89
2023-04-20T02:09:56.121Z,11.90
2023-04-20T02:12:25.052Z,11.63
2023-04-20T02:14:54.206Z,11.92
2023-04-20T02:17:24.412Z,12.09
2023-04-20T02:19:56.006Z,11.95
2023-04-20T02:22:25.051Z,12.04
2023-04-20T02:24:55.669Z,11.86
2023-04-20T02:27:24.709Z,12.36
2023-04-20T02:29:53.842Z,12.31
2023-04-20T02:32:22.936Z,12.12
2023-04-20T02:34:52.031Z,12.27
2023-04-20T02:37:21.081Z,12.40
2023-04-20T02:39:50.050Z,12.49
2023-04-20T02:42:21.617Z,12.36
2023-04-20T02:44:52.790Z,12.05
2023-04-20T02:47:25.958Z,12.21
2023-04-20T02:49:56.226Z,12.08
2023-04-20T02:52:26.034Z,12.04
2023-04-20T02:54:59.122Z,12.17
2023-04-20T02:57:29.884Z,11.99
2023-04-20T02:59:59.280Z,12.23
2023-04-20T03:02:39.574Z,12.07
2023-04-20T03:05:10.496Z,12.30
2023-04-20T03:07:47.790Z,12.29
2023-04-20T03:10:22.927Z,12.33
2023-04-20T03:13:08.005Z,12.18
2023-04-20T03:15:57.743Z,12.17
2023-04-20T03:18:48.733Z,12.38
2023-04-20T03:21:18.355Z,12.37
2023-04-20T03:23:47.589Z,12.35
2023-04-20T03:26:17.892Z,12.35
2023-04-20T03:29:16.718Z,12.55
2023-04-20T03:31:47.105Z,12.48
2023-04-20T03:34:16.462Z,12.66
2023-04-20T03:36:46.626Z,12.60
2023-04-20T03:39:16.067Z,12.43
2023-04-20T03:41:45.756Z,12.48
2023-04-20T03:44:16.925Z,12.44
2023-04-20T03:46:46.512Z,12.27
2023-04-20T03:49:15.767Z,12.49
2023-04-20T03:51:45.239Z,12.58
2023-04-20T03:54:14.392Z,12.45
2023-04-20T03:56:44.812Z,12.44
2023-04-20T03:59:16.659Z,12.41
2023-04-20T04:01:48.752Z,12.35
2023-04-20T04:04:19.297Z,12.05
2023-04-20T04:06:48.482Z,12.43
2023-04-20T04:09:17.622Z,12.45
2023-04-20T04:11:48.212Z,12.21
2023-04-20T04:14:19.049Z,12.10
2023-04-20T04:16:48.535Z,11.99
2023-04-20T04:19:19.353Z,12.40
2023-04-20T04:21:48.605Z,12.43
2023-04-20T04:24:21.659Z,12.27
2023-04-20T04:27:02.314Z,12.56
2023-04-20T04:29:35.939Z,12.65
2023-04-20T04:32:08.219Z,12.74
2023-04-20T04:34:39.486Z,12.58
2023-04-20T04:37:08.760Z,12.52
2023-04-20T04:39:46.953Z,12.56
2023-04-20T04:42:22.343Z,12.98
2023-04-20T04:44:54.972Z,12.43
2023-04-20T04:47:30.771Z,12.13
2023-04-20T04:50:02.065Z,12.12
2023-04-20T04:52:31.358Z,12.15
2023-04-20T04:55:00.845Z,12.23
2023-04-20T04:57:33.186Z,12.31
2023-04-20T05:00:14.114Z,11.97
2023-04-20T05:02:45.184Z,11.94
2023-04-20T05:05:15.068Z,11.62
2023-04-20T05:07:44.352Z,11.75
2023-04-20T05:10:16.388Z,12.05
2023-04-20T05:12:45.698Z,11.59
2023-04-20T05:15:18.054Z,11.89
2023-04-20T05:17:49.757Z,11.83
2023-04-20T05:20:19.689Z,11.50
2023-04-20T05:22:48.773Z,12.07
2023-04-20T05:25:17.847Z,11.97
2023-04-20T05:27:47.508Z,11.83
2023-04-20T05:30:21.776Z,11.68
2023-04-20T05:32:52.770Z,11.56
2023-04-20T05:35:22.478Z,11.71
2023-04-20T05:37:52.537Z,11.56
2023-04-20T05:40:21.867Z,11.57
2023-04-20T05:42:50.997Z,11.42
2023-04-20T05:45:23.401Z,11.64
2023-04-20T05:47:56.147Z,11.78
2023-04-20T05:50:25.526Z,11.42
2023-04-20T05:52:54.915Z,11.66
2023-04-20T05:55:24.544Z,10.98
2023-04-20T05:57:53.891Z,11.32
2023-04-20T06:00:26.125Z,11.07
2023-04-20T06:02:55.838Z,11.04
2023-04-20T06:05:25.527Z,10.74
2023-04-20T06:07:54.701Z,11.24
2023-04-20T06:10:23.929Z,11.16
2023-04-20T06:12:53.112Z,11.39
2023-04-20T06:15:26.564Z,11.23
2023-04-20T06:17:55.684Z,11.43
2023-04-20T06:20:24.978Z,11.64
2023-04-20T06:22:54.445Z,11.49
2023-04-20T06:25:23.912Z,11.54
2023-04-20T06:27:54.434Z,11.71
2023-04-20T06:30:23.559Z,11.54
2023-04-20T06:32:53.993Z,11.78
2023-04-20T06:35:23.502Z,12.70
2023-04-20T06:37:52.753Z,12.49
2023-04-20T06:40:21.748Z,12.70
2023-04-20T06:42:51.121Z,12.63
2023-04-20T06:45:20.564Z,12.92
2023-04-20T06:47:50.076Z,13.49
2023-04-20T06:50:20.819Z,13.67
2023-04-20T06:52:50.113Z,13.88
2023-04-20T06:55:19.412Z,13.75
2023-04-20T06:57:49.052Z,14.15
2023-04-20T07:00:19.514Z,14.06
2023-04-20T07:02:50.217Z,13.73
2023-04-20T07:05:22.130Z,14.15
2023-04-20T07:07:51.328Z,14.12
2023-04-20T07:10:20.512Z,13.41
2023-04-20T07:12:49.511Z,13.36
2023-04-20T07:15:18.619Z,13.27
2023-04-20T07:17:47.910Z,12.85
2023-04-20T07:20:18.174Z,12.51
2023-04-20T07:22:51.217Z,12.40
2023-04-20T07:25:26.117Z,12.67
2023-04-20T07:27:56.568Z,12.64
2023-04-20T07:30:27.151Z,12.71
2023-04-20T07:32:56.372Z,13.17
2023-04-20T07:35:25.693Z,12.89
2023-04-20T07:37:56.320Z,12.42
2023-04-20T07:40:43.428Z,12.74
2023-04-20T07:43:14.954Z,12.72
2023-04-20T07:45:46.550Z,12.59
2023-04-20T07:48:20.140Z,12.16
2023-04-20T07:50:49.236Z,12.43
2023-04-20T07:53:19.690Z,12.24
2023-04-20T07:55:50.793Z,11.62
2023-04-20T07:58:21.688Z,12.58
2023-04-20T08:00:51.674Z,12.63
2023-04-20T08:03:23.278Z,12.60
2023-04-20T08:05:55.131Z,12.89
2023-04-20T08:08:25.708Z,12.78
2023-04-20T08:10:54.953Z,12.91
2023-04-20T08:13:24.282Z,12.66
2023-04-20T08:15:53.464Z,12.81
2023-04-20T08:18:24.843Z,12.53
2023-04-20T08:20:54.325Z,12.29
2023-04-20T08:23:27.783Z,12.47
2023-04-20T08:25:59.531Z,12.38
2023-04-20T08:28:33.465Z,12.31
2023-04-20T08:31:05.467Z,11.96
2023-04-20T08:33:35.069Z,11.99
2023-04-20T08:36:04.167Z,11.72
2023-04-20T08:38:34.367Z,11.97
2023-04-20T08:41:08.133Z,11.91
2023-04-20T08:43:38.078Z,11.98
2023-04-20T08:46:11.207Z,11.95
2023-04-20T08:48:49.340Z,11.62
2023-04-20T08:51:21.180Z,11.46
2023-04-20T08:53:50.439Z,11.76
2023-04-20T08:56:34.819Z,11.90
2023-04-20T08:59:05.942Z,11.42
2023-04-20T09:01:36.371Z,11.71
2023-04-20T09:04:17.630Z,11.96
2023-04-20T09:06:47.772Z,11.67
2023-04-20T09:09:17.412Z,11.70
2023-04-20T09:11:48.551Z,11.57
2023-04-20T09:14:19.114Z,11.75
2023-04-20T09:16:52.651Z,12.06
2023-04-20T09:19:27.523Z,11.95
2023-04-20T09:21:58.006Z,11.91
2023-04-20T09:24:33.107Z,11.79
2023-04-20T09:27:04.557Z,11.79
2023-04-20T09:29:33.701Z,11.73
2023-04-20T09:32:03.386Z,11.59
2023-04-20T09:34:32.790Z,11.35
2023-04-20T09:37:01.829Z,11.60
2023-04-20T09:39:33.701Z,11.85
2023-04-20T09:42:08.512Z,11.45
2023-04-20T09:44:40.091Z,11.94
2023-04-20T09:47:10.944Z,11.74
2023-04-20T09:49:47.762Z,12.04
2023-04-20T09:52:19.238Z,12.34
2023-04-20T09:54:48.304Z,12.42
2023-04-20T09:57:20.454Z,12.94
2023-04-20T09:59:51.340Z,12.79
2023-04-20T10:02:22.265Z,12.43
2023-04-20T10:04:56.329Z,12.64
2023-04-20T10:07:27.321Z,13.32
2023-04-20T10:10:06.679Z,13.73
2023-04-20T10:12:51.399Z,13.33
2023-04-20T10:15:22.165Z,13.68
2023-04-20T10:17:54.046Z,13.37
2023-04-20T10:20:37.832Z,13.20
2023-04-20T10:23:11.691Z,13.41
2023-04-20T10:25:41.159Z,13.64
2023-04-20T10:28:12.170Z,13.05
2023-04-20T10:30:52.695Z,13.55
2023-04-20T10:33:23.181Z,13.50
2023-04-20T10:35:55.262Z,12.60
2023-04-20T10:38:32.301Z,12.93
2023-04-20T10:41:08.292Z,12.86
2023-04-20T10:43:42.377Z,12.88
2023-04-20T10:46:18.892Z,12.79
2023-04-20T10:48:52.669Z,12.87
2023-04-20T10:51:22.286Z,13.19
2023-04-20T10:54:06.324Z,12.77
2023-04-20T10:56:40.243Z,13.02
2023-04-20T10:59:11.459Z,12.90
2023-04-20T11:01:41.939Z,12.80
2023-04-20T11:04:11.748Z,12.87
2023-04-20T11:06:42.087Z,13.07
2023-04-20T11:09:20.154Z,13.13
2023-04-20T11:12:00.866Z,13.31
2023-04-20T11:14:35.644Z,13.23
2023-04-20T11:17:04.922Z,13.27
2023-04-20T11:19:35.583Z,13.07
2023-04-20T11:22:06.575Z,13.27
2023-04-20T11:24:37.661Z,12.92
2023-04-20T11:27:07.091Z,13.16
2023-04-20T11:29:39.162Z,13.19
2023-04-20T11:32:10.726Z,13.19
2023-04-20T11:34:41.330Z,13.41
2023-04-20T11:37:13.821Z,13.15
2023-04-20T11:39:43.253Z,13.05
2023-04-20T11:42:13.318Z,13.56
2023-04-20T11:44:44.022Z,13.54
2023-04-20T11:47:13.343Z,13.45
2023-04-20T11:49:42.478Z,13.12
2023-04-20T11:52:12.021Z,13.55
2023-04-20T11:54:41.493Z,13.19
2023-04-20T11:57:11.221Z,13.12
2023-04-20T11:59:42.933Z,13.08
2023-04-20T12:02:13.775Z,13.19
2023-04-20T12:04:44.288Z,13.14
2023-04-20T12:07:17.022Z,13.26
2023-04-20T12:09:46.451Z,13.75
2023-04-20T12:12:15.697Z,13.71
2023-04-20T12:14:45.139Z,13.56
2023-04-20T12:17:18.737Z,13.16
2023-04-20T12:19:58.014Z,13.48
2023-04-20T12:22:27.210Z,13.61
2023-04-20T12:24:58.522Z,13.41
2023-04-20T12:27:28.181Z,13.59
2023-04-20T12:29:57.528Z,12.75
2023-04-20T12:32:30.464Z,13.52
2023-04-20T12:35:00.706Z,13.52
2023-04-20T12:37:29.761Z,13.51
2023-04-20T12:39:59.531Z,13.71
2023-04-20T12:42:30.825Z,13.40
2023-04-20T12:45:00.776Z,13.57
2023-04-20T12:47:31.707Z,13.69
2023-04-20T12:50:01.048Z,13.56
2023-04-20T12:52:33.915Z,13.50
2023-04-20T12:55:03.680Z,13.31
2023-04-20T12:57:35.896Z,13.53
2023-04-20T13:00:06.308Z,13.44
2023-04-20T13:02:37.406Z,13.60
2023-04-20T13:05:12.752Z,13.42
2023-04-20T13:07:42.038Z,13.58
2023-04-20T13:10:11.644Z,13.55
2023-04-20T13:12:43.423Z,13.58
2023-04-20T13:15:22.894Z,13.65
2023-04-20T13:17:59.693Z,13.51
2023-04-20T13:20:30.354Z,13.29
2023-04-20T13:23:04.895Z,13.52
2023-04-20T13:25:34.486Z,13.53
2023-04-20T13:28:05.185Z,13.05
2023-04-20T13:30:34.680Z,13.26
2023-04-20T13:33:06.650Z,12.94
2023-04-20T13:35:36.431Z,13.09
2023-04-20T13:38:06.478Z,13.17
2023-04-20T13:40:36.285Z,12.96
2023-04-20T13:43:06.404Z,12.97
2023-04-20T13:45:37.504Z,13.04
2023-04-20T13:48:13.099Z,13.32
2023-04-20T13:50:45.004Z,13.38
2023-04-20T13:53:14.859Z,13.17
2023-04-20T13:55:44.339Z,13.05
2023-04-20T13:58:14.769Z,13.19
2023-04-20T14:00:46.559Z,13.37
2023-04-20T14:03:30.904Z,13.27
2023-04-20T14:06:06.315Z,13.37
2023-04-20T14:08:36.343Z,13.61
2023-04-20T14:11:07.041Z,13.77
2023-04-20T14:13:36.314Z,13.47
2023-04-20T14:16:10.147Z,13.87
2023-04-20T14:18:40.906Z,13.62
2023-04-20T14:21:10.941Z,13.43
2023-04-20T14:23:49.252Z,13.70
2023-04-20T14:26:19.060Z,13.51
2023-04-20T14:28:54.013Z,13.46
2023-04-20T14:31:37.547Z,13.75
2023-04-20T14:34:12.970Z,13.90
2023-04-20T14:36:42.326Z,14.02
2023-04-20T14:39:13.082Z,13.83
2023-04-20T14:41:49.223Z,13.96
2023-04-20T14:44:22.409Z,13.99
2023-04-20T14:46:57.230Z,14.07
2023-04-20T14:49:38.007Z,13.81
2023-04-20T14:52:09.843Z,13.96
2023-04-20T14:54:40.501Z,13.69
2023-04-20T14:57:10.953Z,13.97
2023-04-20T14:59:41.718Z,14.06
2023-04-20T15:02:11.211Z,14.17
2023-04-20T15:04:42.988Z,14.09
2023-04-20T15:07:12.867Z,14.12
2023-04-20T15:09:43.909Z,14.30
2023-04-20T15:12:13.138Z,13.93
2023-04-20T15:14:42.954Z,14.33
2023-04-20T15:17:13.988Z,14.42
2023-04-20T15:19:48.181Z,14.14
2023-04-20T15:22:18.485Z,14.17
2023-04-20T15:24:50.860Z,13.73
2023-04-20T15:27:20.769Z,13.72
2023-04-20T15:29:50.643Z,14.31
2023-04-20T15:32:25.216Z,14.32
2023-04-20T15:34:56.611Z,14.25
2023-04-20T15:37:25.788Z,14.41
2023-04-20T15:39:59.229Z,14.17
2023-04-20T15:42:28.758Z,14.19
2023-04-20T15:44:58.224Z,14.19
2023-04-20T15:47:29.736Z,13.58
2023-04-20T15:50:01.756Z,13.19
2023-04-20T15:52:33.152Z,13.66
2023-04-20T15:55:02.445Z,13.61
2023-04-20T15:57:33.856Z,13.67
2023-04-20T16:00:04.545Z,13.76
2023-04-20T16:02:41.150Z,13.42
2023-04-20T16:05:12.271Z,13.64
2023-04-20T16:07:46.529Z,13.77
2023-04-20T16:10:28.968Z,13.91
2023-04-20T16:13:04.783Z,13.63
2023-04-20T16:15:34.195Z,13.72
2023-04-20T16:18:05.502Z,13.64
2023-04-20T16:20:36.614Z,13.27
2023-04-20T16:23:06.685Z,12.90
2023-04-20T16:25:38.484Z,13.61
2023-04-20T16:28:09.928Z,13.59
2023-04-20T16:30:39.625Z,13.55
2023-04-20T16:33:11.822Z,13.36
2023-04-20T16:35:43.255Z,13.73
2023-04-20T16:38:13.056Z,13.67
2023-04-20T16:40:47.144Z,13.65
2023-04-20T16:43:16.584Z,13.62
2023-04-20T16:45:53.568Z,13.19
2023-04-20T16:48:23.298Z,13.63
2023-04-20T16:51:00.525Z,13.71
2023-04-20T16:53:30.985Z,13.65
2023-04-20T16:56:01.957Z,14.01
2023-04-20T16:58:31.636Z,14.08
2023-04-20T17:01:00.765Z,14.14
2023-04-20T17:03:30.529Z,14.10
2023-04-20T17:06:07.360Z,14.04
2023-04-20T17:08:38.834Z,14.09
2023-04-20T17:11:08.507Z,14.08
2023-04-20T17:13:39.652Z,14.03
2023-04-20T17:16:09.445Z,13.99
2023-04-20T17:18:41.702Z,13.96
2023-04-20T17:21:12.702Z,14.04
2023-04-20T17:23:48.664Z,13.86
2023-04-20T17:26:21.527Z,13.84
2023-04-20T17:28:53.653Z,14.02
2023-04-20T17:31:23.669Z,13.82
2023-04-20T17:33:53.342Z,13.97
2023-04-20T17:36:52.643Z,13.97
2023-04-20T17:39:22.550Z,13.72
2023-04-20T17:41:52.128Z,13.72
2023-04-20T17:44:21.578Z,13.71
2023-04-20T17:46:52.236Z,13.70
2023-04-20T17:49:21.459Z,13.78
2023-04-20T17:51:52.202Z,13.71
2023-04-20T17:54:21.265Z,13.86
2023-04-20T17:56:50.456Z,13.77
2023-04-20T17:59:19.609Z,13.45
2023-04-20T18:01:49.739Z,13.51
2023-04-20T18:04:20.402Z,13.38
2023-04-20T18:06:51.607Z,13.57
2023-04-20T18:09:22.222Z,13.47
2023-04-20T18:11:51.233Z,13.56
2023-04-20T18:14:23.330Z,13.46
2023-04-20T18:16:54.932Z,13.52
2023-04-20T18:19:24.333Z,13.22
2023-04-20T18:21:53.881Z,13.37
2023-04-20T18:24:24.986Z,13.44
2023-04-20T18:26:54.719Z,13.42
2023-04-20T18:29:23.879Z,13.57
2023-04-20T18:31:53.746Z,13.65
2023-04-20T18:34:23.079Z,13.54
2023-04-20T18:36:52.264Z,13.73
2023-04-20T18:39:21.349Z,13.55
2023-04-20T18:41:51.981Z,13.63
2023-04-20T18:44:24.026Z,13.55
2023-04-20T18:46:53.624Z,13.56
2023-04-20T18:49:22.897Z,13.48
2023-04-20T18:51:52.008Z,13.53
2023-04-20T18:54:21.747Z,13.42
2023-04-20T18:56:54.789Z,13.14
2023-04-20T18:59:24.819Z,13.24
2023-04-20T19:01:54.701Z,13.38
2023-04-20T19:04:24.318Z,13.42
2023-04-20T19:06:54.381Z,13.30
2023-04-20T19:09:23.420Z,13.23
2023-04-20T19:11:59.117Z,13.18
2023-04-20T19:14:28.864Z,12.95
2023-04-20T19:16:58.053Z,12.78
2023-04-20T19:19:27.424Z,12.59
2023-04-20T19:21:59.326Z,12.46
2023-04-20T19:25:19.245Z,12.47
2023-04-20T19:27:50.410Z,12.29
2023-04-20T19:30:30.427Z,12.13
2023-04-20T19:33:02.553Z,12.26
2023-04-20T19:35:36.993Z,12.03
2023-04-20T19:38:10.315Z,11.42
2023-04-20T19:40:40.628Z,11.76
2023-04-20T19:43:11.612Z,11.74
2023-04-20T19:45:41.110Z,11.78
2023-04-20T19:48:10.688Z,11.71
2023-04-20T19:50:40.764Z,11.65
2023-04-20T19:53:10.175Z,11.73
2023-04-20T19:55:39.489Z,11.77
2023-04-20T19:58:10.947Z,11.35
2023-04-20T20:00:40.632Z,11.45
2023-04-20T20:03:12.225Z,11.35
2023-04-20T20:05:41.836Z,11.31
2023-04-20T20:08:11.102Z,11.34
2023-04-20T20:10:40.242Z,11.43
2023-04-20T20:13:10.946Z,11.22
2023-04-20T20:15:40.156Z,11.14
2023-04-20T20:18:10.761Z,11.44
2023-04-20T20:20:40.305Z,11.27
2023-04-20T20:23:09.872Z,11.22
2023-04-20T20:25:39.170Z,11.14
2023-04-20T20:28:09.497Z,11.28
2023-04-20T20:30:41.717Z,11.44
2023-04-20T20:33:10.900Z,11.29
2023-04-20T20:35:40.094Z,11.39
2023-04-20T20:38:11.135Z,11.50
2023-04-20T20:40:41.023Z,11.34
2023-04-20T20:43:10.925Z,11.26
2023-04-20T20:45:41.627Z,11.30
2023-04-20T20:48:11.308Z,11.26
2023-04-20T20:50:40.593Z,10.96
2023-04-20T20:53:09.778Z,11.37
2023-04-20T20:55:38.700Z,11.09
2023-04-20T20:58:08.074Z,11.22
2023-04-20T21:00:37.076Z,10.98
2023-04-20T21:03:07.818Z,11.13
2023-04-20T21:05:37.143Z,10.95
2023-04-20T21:08:06.401Z,10.91
2023-04-20T21:10:35.815Z,10.80
2023-04-20T21:13:07.040Z,10.94
2023-04-20T21:15:40.382Z,10.91
2023-04-20T21:18:11.211Z,11.00
2023-04-20T21:20:40.310Z,10.96
2023-04-20T21:23:10.493Z,10.97
2023-04-20T21:25:40.884Z,10.85
2023-04-20T21:28:10.076Z,10.88
2023-04-20T21:30:39.241Z,10.85
2023-04-20T21:33:08.328Z,10.58
2023-04-20T21:35:38.664Z,10.76
2023-04-20T21:38:10.959Z,10.87
2023-04-20T21:40:48.702Z,10.78
2023-04-20T21:43:18.075Z,10.58
2023-04-20T21:45:47.360Z,10.59
2023-04-20T21:48:16.631Z,10.71
2023-04-20T21:50:49.710Z,10.80
2023-04-20T21:53:18.835Z,10.74
2023-04-20T21:55:47.825Z,10.72
2023-04-20T21:58:17.049Z,10.66
2023-04-20T22:00:46.254Z,10.64
2023-04-20T22:03:15.462Z,10.50
2023-04-20T22:05:46.287Z,10.44
2023-04-20T22:08:15.312Z,10.42
2023-04-20T22:10:44.414Z,10.35
2023-04-20T22:13:14.255Z,10.14
2023-04-20T22:15:43.543Z,10.19
2023-04-20T22:18:13.008Z,10.09
2023-04-20T22:20:42.071Z,10.05
2023-04-20T22:23:12.486Z,10.13
2023-04-20T22:25:42.948Z,9.97
2023-04-20T22:28:12.945Z,9.99
2023-04-20T22:30:42.972Z,9.99
2023-04-20T22:33:12.113Z,9.89
2023-04-20T22:35:41.104Z,9.87
2023-04-20T22:38:10.243Z,9.81
2023-04-20T22:40:40.854Z,9.80
2023-04-20T22:43:10.184Z,9.83
2023-04-20T22:45:39.229Z,9.84
2023-04-20T22:48:09.416Z,9.90
2023-04-20T22:50:38.564Z,9.86
2023-04-20T22:53:07.782Z,9.89
2023-04-20T22:55:36.915Z,9.87
2023-04-20T22:58:07.330Z,9.95
2023-04-20T23:00:36.481Z,9.84
2023-04-20T23:03:05.939Z,9.93
2023-04-20T23:05:35.396Z,10.01
2023-04-20T23:08:04.747Z,9.93
2023-04-20T23:10:35.065Z,10.01
2023-04-20T23:13:05.071Z,10.07
2023-04-20T23:15:35.578Z,10.25
2023-04-20T23:18:05.781Z,10.27
2023-04-20T23:20:37.191Z,10.37
2023-04-20T23:23:07.646Z,10.42
2023-04-20T23:25:36.658Z,10.52
2023-04-20T23:28:05.981Z,10.40
2023-04-20T23:30:36.533Z,10.48
2023-04-20T23:33:05.703Z,10.49
2023-04-20T23:35:35.097Z,10.35
2023-04-20T23:38:05.407Z,10.16
2023-04-20T23:40:34.437Z,10.40
2023-04-20T23:43:03.700Z,10.36
2023-04-20T23:45:32.691Z,10.45
2023-04-20T23:48:03.085Z,10.48
2023-04-20T23:50:32.102Z,10.37
2023-04-20T23:53:01.118Z,10.07
2023-04-20T23:55:30.384Z,10.12
2023-04-20T23:57:59.423Z,10.10
